Time;durP1;ratioP1;P1;durP2;ratioP2;P2;SDS_P1;SDS_P2;PMS_P1;PMS_P2;Temp;Humidity;BMP_temperature;BMP_pressure;BME280_temperature;BME280_humidity;BME280_pressure;Samples;Min_cycle;Max_cycle;Signal;HPM_P1;HPM_P2
2023/12/12 00:01:22;;;;;;;11.55;4.40;;;;;;;9.62;69.73;97436.19;4409620;32;20152;-76
2023/12/12 00:03:50;;;;;;;12.60;4.82;;;;;;;9.75;67.98;97439.84;4409847;32;20070;-76
2023/12/12 00:06:17;;;;;;;11.98;4.53;;;;;;;10.59;64.98;97451.91;4409809;32;20478;-76
2023/12/12 00:08:44;;;;;;;10.32;3.92;;;;;;;10.37;64.22;97457.34;4409622;32;20147;-76
2023/12/12 00:11:11;;;;;;;10.30;4.30;;;;;;;10.42;62.78;97449.41;4409861;32;20143;-76
2023/12/12 00:13:38;;;;;;;12.50;4.65;;;;;;;10.24;62.69;97453.72;4395760;32;20461;-76
2023/12/12 00:16:08;;;;;;;11.52;5.12;;;;;;;9.91;63.94;97469.13;4408211;32;20158;-76
2023/12/12 00:18:36;;;;;;;12.07;4.90;;;;;;;10.81;60.67;97466.28;4409947;32;20494;-76
2023/12/12 00:21:03;;;;;;;14.52;5.55;;;;;;;10.03;62.43;97473.66;4409717;32;20429;-76
2023/12/12 00:23:30;;;;;;;13.05;6.07;;;;;;;8.87;66.98;97479.16;4409281;32;20437;-75
2023/12/12 00:25:58;;;;;;;11.60;5.22;;;;;;;8.11;70.81;97480.72;4408433;32;20102;-76
2023/12/12 00:28:25;;;;;;;11.23;5.40;;;;;;;7.56;74.25;97484.69;4409660;32;20429;-75
2023/12/12 00:30:53;;;;;;;11.60;5.15;;;;;;;7.36;74.31;97484.63;4409736;32;20159;-76
2023/12/12 00:33:20;;;;;;;13.98;5.85;;;;;;;8.13;71.83;97486.63;4409610;32;20078;-76
2023/12/12 00:35:48;;;;;;;12.35;5.20;;;;;;;8.28;70.58;97489.44;4395590;32;20098;-75
2023/12/12 00:38:15;;;;;;;13.38;5.28;;;;;;;8.28;71.08;97489.44;4409780;32;20094;-76
2023/12/12 00:40:51;;;;;;;13.15;5.00;;;;;;;8.60;70.94;97488.06;4409423;32;20461;-76
2023/12/12 00:43:18;;;;;;;12.73;5.07;;;;;;;8.11;72.24;97483.28;4409266;32;20464;-76
2023/12/12 00:45:45;;;;;;;12.23;4.82;;;;;;;7.47;74.50;97479.91;4409427;32;20098;-76
2023/12/12 00:48:12;;;;;;;11.73;5.07;;;;;;;7.73;72.82;97479.69;4408502;32;20140;-76
2023/12/12 00:50:39;;;;;;;12.20;4.55;;;;;;;8.78;70.21;97478.72;4409227;32;20441;-76
2023/12/12 00:53:06;;;;;;;12.43;4.62;;;;;;;9.77;66.29;97484.38;4409391;32;20085;-76
2023/12/12 00:55:33;;;;;;;10.85;4.30;;;;;;;9.42;66.98;97480.94;4409192;32;20098;-76
2023/12/12 00:58:00;;;;;;;13.45;5.30;;;;;;;9.67;65.73;97490.88;4409121;32;20479;-75
2023/12/12 01:00:27;;;;;;;12.00;4.82;;;;;;;9.33;65.95;97484.75;4409217;32;20086;-76
2023/12/12 01:02:54;;;;;;;12.15;5.05;;;;;;;9.80;65.21;97497.97;4409150;32;20395;-76
2023/12/12 01:05:21;;;;;;;18.17;5.60;;;;;;;9.79;64.54;97509.19;4408900;32;20095;-76
2023/12/12 01:07:49;;;;;;;11.73;5.05;;;;;;;8.89;67.45;97503.06;4409322;32;20213;-76
2023/12/12 01:10:16;;;;;;;12.10;5.18;;;;;;;9.53;66.04;97505.25;4409287;32;20157;-76
2023/12/12 01:12:43;;;;;;;12.00;5.32;;;;;;;9.74;64.70;97511.13;4408892;32;20078;-76
2023/12/12 01:15:10;;;;;;;12.73;5.07;;;;;;;10.04;61.74;97503.66;4409130;32;20131;-76
2023/12/12 01:17:37;;;;;;;11.50;4.85;;;;;;;10.09;61.21;97518.91;4408917;32;20101;-75
2023/12/12 01:20:07;;;;;;;11.63;4.80;;;;;;;9.89;62.17;97511.31;4408998;32;20135;-76
2023/12/12 01:22:34;;;;;;;10.32;4.55;;;;;;;9.89;61.98;97508.72;4409097;32;20105;-76
2023/12/12 01:25:03;;;;;;;13.00;5.20;;;;;;;9.30;63.92;97517.53;4408672;32;20150;-75
2023/12/12 01:27:30;;;;;;;11.77;5.15;;;;;;;10.02;61.26;97517.56;4410907;32;20090;-76
2023/12/12 01:29:57;;;;;;;15.05;6.50;;;;;;;7.60;69.60;97527.31;4410968;32;20484;-76
2023/12/12 01:32:25;;;;;;;18.25;7.25;;;;;;;8.03;69.81;97515.31;4410519;32;20090;-75
2023/12/12 01:34:52;;;;;;;13.27;7.43;;;;;;;8.46;66.99;97514.41;4397241;32;20151;-76
2023/12/12 01:37:19;;;;;;;13.75;6.60;;;;;;;8.64;66.70;97515.34;4410963;32;20090;-76
2023/12/12 01:39:46;;;;;;;14.45;6.32;;;;;;;8.80;65.26;97523.22;4410421;32;20100;-76
2023/12/12 01:42:13;;;;;;;16.15;7.12;;;;;;;8.33;66.54;97510.66;4410889;32;20112;-76
2023/12/12 01:44:40;;;;;;;13.77;6.68;;;;;;;8.99;64.27;97512.03;4410777;32;20093;-76
2023/12/12 01:47:08;;;;;;;14.70;6.72;;;;;;;9.18;63.31;97513.78;4410454;32;20091;-76
2023/12/12 01:49:35;;;;;;;16.02;6.35;;;;;;;9.04;63.99;97513.56;4397116;32;20119;-76
2023/12/12 01:52:03;;;;;;;11.80;5.72;;;;;;;8.85;65.29;97501.53;4410990;32;20148;-76
2023/12/12 01:54:30;;;;;;;13.40;5.78;;;;;;;9.65;62.64;97500.44;4410164;32;20102;-76
2023/12/12 01:56:58;;;;;;;12.35;4.65;;;;;;;9.74;62.50;97505.16;4410633;32;20098;-76
2023/12/12 01:59:25;;;;;;;14.65;5.78;;;;;;;10.05;61.91;97513.06;4410849;32;20144;-76
2023/12/12 02:01:52;;;;;;;12.30;5.70;;;;;;;9.71;63.67;97506.16;4410368;32;20078;-76
2023/12/12 02:04:20;;;;;;;12.27;5.15;;;;;;;9.37;64.51;97506.91;4410650;32;20524;-76
2023/12/12 02:06:49;;;;;;;9.45;4.15;;;;;;;8.74;64.75;97503.75;4410245;32;20108;-75
2023/12/12 02:09:16;;;;;;;12.37;5.43;;;;;;;8.93;65.73;97507.19;4410842;32;20086;-76
2023/12/12 02:11:43;;;;;;;11.63;4.78;;;;;;;7.98;69.74;97502.69;4409565;32;20103;-76
2023/12/12 02:14:10;;;;;;;14.32;5.43;;;;;;;9.68;63.50;97510.63;4410294;32;20438;-75
2023/12/12 02:16:38;;;;;;;11.93;5.07;;;;;;;9.73;61.70;97491.44;4409406;32;20163;-76
2023/12/12 02:19:06;;;;;;;13.55;5.10;;;;;;;9.44;62.07;97505.69;4409563;32;20090;-76
2023/12/12 02:21:33;;;;;;;11.50;5.15;;;;;;;9.52;61.23;97505.34;4410251;32;20136;-75
2023/12/12 02:24:00;;;;;;;14.85;5.93;;;;;;;9.18;62.32;97511.22;4410517;32;20434;-76
2023/12/12 02:26:27;;;;;;;11.40;5.20;;;;;;;8.63;63.80;97513.69;4410636;32;20098;-76
2023/12/12 02:28:55;;;;;;;11.07;4.95;;;;;;;8.88;64.33;97498.00;4410191;32;20094;-76
2023/12/12 02:31:22;;;;;;;11.38;4.80;;;;;;;8.48;64.65;97502.31;4384475;32;20496;-76
2023/12/12 02:33:49;;;;;;;11.05;4.28;;;;;;;8.77;64.38;97495.91;4410431;32;20163;-76
2023/12/12 02:36:16;;;;;;;11.32;4.72;;;;;;;8.65;64.03;97501.59;4410059;32;20102;-76
2023/12/12 02:38:43;;;;;;;10.65;4.57;;;;;;;9.14;62.56;97502.78;4410543;32;20102;-76
2023/12/12 02:41:10;;;;;;;10.65;4.50;;;;;;;9.22;61.60;97513.56;4410361;32;20089;-76
2023/12/12 02:43:37;;;;;;;11.05;4.35;;;;;;;8.32;63.56;97498.69;4410076;32;20089;-75
2023/12/12 02:46:04;;;;;;;10.63;4.05;;;;;;;7.67;66.28;97497.09;4410380;32;20116;-76
2023/12/12 02:48:31;;;;;;;9.38;4.07;;;;;;;7.94;67.69;97492.56;4396837;32;20085;-76
2023/12/12 02:50:59;;;;;;;12.80;4.80;;;;;;;8.53;64.86;97499.56;4410026;32;20073;-76
2023/12/12 02:53:26;;;;;;;10.52;4.43;;;;;;;7.88;66.45;97506.53;4409145;32;20115;-76
2023/12/12 02:55:53;;;;;;;10.23;4.12;;;;;;;7.96;65.84;97508.75;4409761;32;20184;-75
2023/12/12 02:58:20;;;;;;;9.88;3.75;;;;;;;7.56;68.29;97506.97;4410324;32;20429;-76
2023/12/12 03:00:47;;;;;;;9.13;3.17;;;;;;;7.95;66.33;97505.34;4410292;32;20082;-76
2023/12/12 03:03:14;;;;;;;9.02;3.37;;;;;;;7.95;67.62;97512.22;4409982;32;20113;-75
2023/12/12 03:05:41;;;;;;;8.85;3.28;;;;;;;8.64;65.61;97508.47;4410426;32;20098;-76
2023/12/12 03:08:08;;;;;;;9.98;3.62;;;;;;;8.53;65.63;97512.41;4410236;32;20598;-76
2023/12/12 03:10:35;;;;;;;8.82;3.00;;;;;;;8.74;64.72;97516.63;4409995;32;20074;-75
2023/12/12 03:13:01;;;;;;;8.02;2.95;;;;;;;8.73;65.46;97517.53;4410207;32;20148;-76
2023/12/12 03:15:28;;;;;;;7.85;3.20;;;;;;;8.93;66.10;97519.19;4410254;32;20106;-76
2023/12/12 03:17:55;;;;;;;8.73;2.87;;;;;;;8.97;65.67;97524.16;4383766;32;20169;-76
2023/12/12 03:20:23;;;;;;;9.63;2.90;;;;;;;8.78;68.40;97525.84;4410140;32;20422;-76
2023/12/12 03:22:50;;;;;;;10.35;3.03;;;;;;;9.23;68.17;97520.38;4410122;32;20133;-76
2023/12/12 03:25:17;;;;;;;8.77;3.30;;;;;;;9.16;68.44;97525.91;4409827;32;20106;-76
2023/12/12 03:27:44;;;;;;;9.18;3.10;;;;;;;9.65;67.35;97528.78;4410209;32;20532;-76
2023/12/12 03:30:11;;;;;;;8.57;3.12;;;;;;;10.24;63.69;97528.50;4410292;32;20085;-76
2023/12/12 03:32:39;;;;;;;9.73;3.03;;;;;;;10.48;60.96;97531.59;4409880;32;20107;-76
2023/12/12 03:35:06;;;;;;;6.68;2.62;;;;;;;10.44;61.51;97532.66;4410121;32;20124;-76
2023/12/12 03:37:34;;;;;;;10.55;3.25;;;;;;;9.67;63.66;97534.69;4410192;32;20100;-76
2023/12/12 03:40:02;;;;;;;8.40;2.83;;;;;;;10.54;61.62;97540.78;4409700;32;20086;-76
2023/12/12 03:42:29;;;;;;;8.65;2.80;;;;;;;10.83;60.43;97544.44;4396431;32;20121;-76
2023/12/12 03:44:56;;;;;;;8.70;3.53;;;;;;;10.72;60.36;97540.66;4409729;32;20441;-75
2023/12/12 03:47:23;;;;;;;14.02;5.68;;;;;;;10.95;59.86;97554.13;4410140;32;20078;-76
2023/12/12 03:49:50;;;;;;;13.02;4.95;;;;;;;10.91;58.43;97542.28;4409479;32;20161;-76
2023/12/12 03:52:18;;;;;;;18.75;6.60;;;;;;;11.04;57.36;97542.47;4409650;32;20446;-75
2023/12/12 03:54:45;;;;;;;12.15;4.95;;;;;;;10.90;57.39;97553.53;4409840;32;20110;-76
2023/12/12 03:57:12;;;;;;;9.43;3.80;;;;;;;10.14;59.74;97551.28;4410016;32;20116;-76
2023/12/12 03:59:39;;;;;;;8.35;2.87;;;;;;;10.33;59.74;97548.69;4409696;32;20143;-76
2023/12/12 04:02:06;;;;;;;8.18;2.90;;;;;;;10.56;59.63;97549.28;4409824;32;20412;-76
2023/12/12 04:04:33;;;;;;;10.65;3.78;;;;;;;10.73;60.40;97562.13;4409895;32;20148;-76
2023/12/12 04:07:03;;;;;;;10.05;4.47;;;;;;;11.57;56.20;97558.53;4409499;32;20104;-75
2023/12/12 04:09:30;;;;;;;10.98;4.18;;;;;;;10.69;59.13;97568.38;4409789;32;20086;-76
2023/12/12 04:11:57;;;;;;;10.20;3.30;;;;;;;11.08;58.27;97578.41;4409876;32;20159;-76
2023/12/12 04:14:24;;;;;;;9.30;2.72;;;;;;;10.89;58.69;97581.09;4409484;32;20110;-76
2023/12/12 04:16:51;;;;;;;9.55;2.87;;;;;;;9.78;60.65;97571.06;4409942;32;20147;-76
2023/12/12 04:19:18;;;;;;;9.68;3.83;;;;;;;9.37;61.51;97575.59;4409884;32;20125;-76
2023/12/12 04:21:45;;;;;;;10.40;4.00;;;;;;;9.81;60.25;97574.38;4409333;32;20098;-76
2023/12/12 04:24:12;;;;;;;10.60;4.43;;;;;;;10.10;59.64;97577.28;4409753;32;20094;-76
2023/12/12 04:26:39;;;;;;;9.13;3.60;;;;;;;10.55;57.16;97583.72;4409772;32;20138;-76
2023/12/12 04:29:06;;;;;;;10.10;3.30;;;;;;;10.32;58.19;97587.44;4409428;32;20098;-76
2023/12/12 04:31:33;;;;;;;8.32;2.95;;;;;;;9.44;60.56;97589.84;4409741;32;20458;-76
2023/12/12 04:34:00;;;;;;;10.05;2.67;;;;;;;10.25;59.36;97593.78;4409420;32;20147;-75
2023/12/12 04:36:27;;;;;;;8.02;2.47;;;;;;;10.53;58.86;97594.13;4409829;32;20086;-76
2023/12/12 04:38:54;;;;;;;8.13;2.90;;;;;;;9.56;61.16;97595.25;4409651;32;20141;-76
2023/12/12 04:41:21;;;;;;;7.35;3.10;;;;;;;10.02;59.94;97600.84;4409269;32;20606;-75
2023/12/12 04:43:48;;;;;;;10.35;3.30;;;;;;;9.53;61.40;97600.56;4409584;32;20112;-76
2023/12/12 04:46:20;;;;;;;10.73;3.37;;;;;;;9.67;61.13;97609.38;4409584;32;20739;-76
2023/12/12 04:48:48;;;;;;;9.45;3.60;;;;;;;9.24;61.92;97601.84;4409210;32;20108;-76
2023/12/12 04:51:15;;;;;;;9.93;3.92;;;;;;;9.23;62.57;97612.22;4409585;32;20093;-76
2023/12/12 04:53:42;;;;;;;11.27;4.20;;;;;;;10.01;59.99;97604.34;4407985;32;20114;-76
2023/12/12 04:56:09;;;;;;;9.18;3.80;;;;;;;10.36;58.17;97612.16;4409103;32;20533;-76
2023/12/12 04:58:36;;;;;;;9.15;3.42;;;;;;;9.79;60.15;97614.00;4409510;32;20142;-76
2023/12/12 05:01:04;;;;;;;11.20;4.25;;;;;;;10.11;59.02;97618.47;4408164;32;20366;-76
2023/12/12 05:03:32;;;;;;;9.77;3.80;;;;;;;9.73;59.56;97616.84;4408915;32;20417;-76
2023/12/12 05:06:00;;;;;;;9.93;3.33;;;;;;;9.80;59.67;97621.66;4409276;32;20086;-76
2023/12/12 05:08:27;;;;;;;10.70;3.40;;;;;;;9.82;59.75;97619.00;4395745;32;20081;-76
2023/12/12 05:10:54;;;;;;;10.65;3.95;;;;;;;9.34;61.02;97617.72;4408870;32;20424;-75
2023/12/12 05:13:21;;;;;;;9.75;3.80;;;;;;;9.47;60.81;97616.31;4409172;32;20424;-76
2023/12/12 05:15:49;;;;;;;9.20;3.42;;;;;;;8.83;62.53;97608.84;4409230;32;20097;-76
2023/12/12 05:18:16;;;;;;;8.57;3.50;;;;;;;9.04;62.62;97611.34;4408717;32;20078;-76
2023/12/12 05:20:43;;;;;;;9.95;3.05;;;;;;;9.73;60.78;97612.53;4409044;32;20117;-76
2023/12/12 05:23:11;;;;;;;9.32;3.60;;;;;;;9.94;60.24;97610.69;4394952;32;20398;-75
2023/12/12 05:25:39;;;;;;;10.32;3.70;;;;;;;10.35;58.21;97610.50;4395296;32;20196;-76
2023/12/12 05:28:07;;;;;;;10.23;3.50;;;;;;;9.60;60.36;97615.75;4409162;32;20436;-76
2023/12/12 05:30:34;;;;;;;8.63;3.58;;;;;;;10.12;58.14;97614.97;4408743;32;20146;-75
2023/12/12 05:33:04;;;;;;;10.88;3.60;;;;;;;9.60;59.67;97614.00;4409002;32;20116;-76
2023/12/12 05:35:31;;;;;;;10.50;3.50;;;;;;;9.17;59.33;97615.09;4408888;32;20105;-76
2023/12/12 05:37:58;;;;;;;10.20;3.80;;;;;;;9.04;59.92;97614.78;4408598;32;20145;-76
2023/12/12 05:40:26;;;;;;;10.52;4.00;;;;;;;9.25;58.47;97615.56;4408850;32;20090;-77
2023/12/12 05:42:53;;;;;;;10.73;3.90;;;;;;;9.06;59.41;97625.00;4408692;32;20120;-77
2023/12/12 05:45:20;;;;;;;10.05;3.70;;;;;;;8.32;63.12;97625.47;4408308;32;20163;-76
2023/12/12 05:47:47;;;;;;;13.18;4.10;;;;;;;7.87;64.67;97630.72;4408818;32;20078;-76
2023/12/12 05:50:14;;;;;;;12.25;4.30;;;;;;;7.52;66.41;97626.88;4408703;32;20090;-76
2023/12/12 05:52:41;;;;;;;9.75;3.70;;;;;;;7.97;65.39;97634.56;4408172;32;20168;-76
2023/12/12 05:55:08;;;;;;;10.70;3.75;;;;;;;8.36;64.95;97632.19;4394733;32;20401;-76
2023/12/12 05:57:36;;;;;;;8.25;3.40;;;;;;;8.67;63.49;97623.22;4408618;32;20157;-76
2023/12/12 06:00:05;;;;;;;11.95;4.00;;;;;;;7.88;66.00;97632.38;4408359;32;20472;-76
2023/12/12 06:02:32;;;;;;;12.93;4.47;;;;;;;8.35;65.24;97625.38;4408332;32;20102;-76
2023/12/12 06:04:59;;;;;;;22.23;7.60;;;;;;;8.68;64.70;97627.47;4408497;32;20162;-76
2023/12/12 06:07:26;;;;;;;20.00;8.73;;;;;;;8.59;64.64;97635.56;4408317;32;20081;-76
2023/12/12 06:09:54;;;;;;;33.65;14.95;;;;;;;9.46;62.57;97630.09;4408517;32;20437;-76
2023/12/12 06:12:21;;;;;;;45.22;19.90;;;;;;;10.24;59.10;97635.97;4409139;32;20429;-75
2023/12/12 06:14:47;;;;;;;29.10;12.10;;;;;;;10.23;58.75;97637.69;4410615;32;20169;-76
2023/12/12 06:17:14;;;;;;;29.83;11.75;;;;;;;9.89;58.95;97646.16;4410608;32;20090;-76
2023/12/12 06:19:41;;;;;;;11.20;4.15;;;;;;;9.32;60.14;97659.91;4410310;32;20158;-75
2023/12/12 06:22:09;;;;;;;11.40;4.47;;;;;;;8.68;62.90;97671.19;4410536;32;20117;-76
2023/12/12 06:24:36;;;;;;;10.20;3.80;;;;;;;8.01;65.87;97673.84;4410484;32;20094;-76
2023/12/12 06:27:03;;;;;;;9.73;3.90;;;;;;;7.73;67.49;97685.16;4410244;32;20145;-75
2023/12/12 06:29:30;;;;;;;11.75;4.03;;;;;;;7.37;69.61;97682.19;4410661;32;20102;-76
2023/12/12 06:31:57;;;;;;;10.85;3.85;;;;;;;7.39;71.16;97677.00;4410546;32;20106;-76
2023/12/12 06:34:24;;;;;;;10.15;3.65;;;;;;;7.12;73.48;97679.62;4410142;32;20078;-75
2023/12/12 06:36:51;;;;;;;10.05;3.25;;;;;;;7.12;74.85;97676.22;4410336;32;20074;-76
2023/12/12 06:39:18;;;;;;;9.38;3.15;;;;;;;7.65;72.59;97666.59;4410591;32;20221;-76
2023/12/12 06:41:45;;;;;;;10.07;3.70;;;;;;;8.07;71.45;97678.72;4410053;32;20146;-75
2023/12/12 06:44:13;;;;;;;9.88;3.17;;;;;;;8.07;72.55;97682.13;4410413;32;20519;-75
2023/12/12 06:46:40;;;;;;;11.12;3.30;;;;;;;8.83;69.23;97687.75;4410198;32;20425;-76
2023/12/12 06:49:07;;;;;;;10.13;3.65;;;;;;;8.70;69.17;97688.22;4410192;32;20091;-75
2023/12/12 06:51:35;;;;;;;7.85;3.50;;;;;;;9.03;67.31;97687.72;4410263;32;20157;-76
2023/12/12 06:54:03;;;;;;;9.73;3.72;;;;;;;8.65;68.13;97690.16;4410088;32;20118;-76
2023/12/12 06:56:31;;;;;;;9.15;3.45;;;;;;;9.42;65.92;97700.63;4396727;32;20086;-80
2023/12/12 06:58:58;;;;;;;9.85;3.72;;;;;;;9.49;65.38;97699.47;4411103;32;20114;-80
2023/12/12 07:01:25;;;;;;;8.90;3.28;;;;;;;9.25;66.83;97692.78;4411828;32;20112;-79
2023/12/12 07:03:52;;;;;;;8.95;3.72;;;;;;;10.01;63.86;97694.56;4410511;32;20484;-78
2023/12/12 07:06:19;;;;;;;10.77;4.20;;;;;;;10.55;62.20;97689.50;4410160;32;20473;-79
2023/12/12 07:08:46;;;;;;;9.52;3.47;;;;;;;10.48;66.41;97695.84;4409962;32;20106;-77
2023/12/12 07:11:18;;;;;;;10.77;3.60;;;;;;;11.22;61.57;97697.28;4410392;32;20098;-74
2023/12/12 07:13:45;;;;;;;10.38;3.87;;;;;;;12.19;58.03;97703.41;4410120;32;20169;-78
2023/12/12 07:16:12;;;;;;;10.13;3.53;;;;;;;12.61;56.57;97702.78;4409347;32;20086;-77
2023/12/12 07:18:39;;;;;;;9.68;3.40;;;;;;;12.89;53.97;97689.13;4396619;32;20094;-77
2023/12/12 07:21:07;;;;;;;9.63;3.87;;;;;;;13.46;52.72;97698.75;4383284;32;20126;-76
2023/12/12 07:23:34;;;;;;;9.10;3.37;;;;;;;14.07;49.70;97706.22;4395154;32;20098;-77
2023/12/12 07:26:01;;;;;;;10.27;4.30;;;;;;;14.26;49.31;97705.91;4383861;32;20090;-77
2023/12/12 07:28:28;;;;;;;8.75;3.97;;;;;;;13.91;48.58;97710.69;4383982;32;20171;-78
2023/12/12 07:30:55;;;;;;;9.50;3.80;;;;;;;13.67;49.25;97718.19;4409716;32;20140;-79
2023/12/12 07:33:24;;;;;;;11.65;4.87;;;;;;;13.32;50.74;97707.34;4409996;32;20148;-79
2023/12/12 07:35:51;;;;;;;10.55;4.07;;;;;;;13.17;50.21;97713.38;4409832;32;20445;-78
2023/12/12 07:38:18;;;;;;;10.65;4.30;;;;;;;13.12;50.04;97710.25;4395983;32;20110;-78
2023/12/12 07:40:45;;;;;;;11.90;4.03;;;;;;;13.31;49.32;97713.47;4410066;32;20213;-79
2023/12/12 07:43:12;;;;;;;10.10;4.32;;;;;;;13.42;50.08;97718.84;4409980;32;20097;-78
2023/12/12 07:45:39;;;;;;;9.73;4.25;;;;;;;13.38;50.74;97709.56;4409628;32;20078;-79
2023/12/12 07:48:07;;;;;;;11.48;4.18;;;;;;;13.95;48.73;97711.34;4410059;32;20117;-78
2023/12/12 07:50:34;;;;;;;9.80;4.15;;;;;;;13.64;49.37;97721.00;4409624;32;20090;-79
2023/12/12 07:53:01;;;;;;;10.63;4.00;;;;;;;13.50;50.35;97718.38;4409853;32;20093;-79
2023/12/12 07:55:28;;;;;;;12.13;4.22;;;;;;;13.45;50.30;97725.59;4409635;32;20090;-79
2023/12/12 07:57:55;;;;;;;11.25;4.20;;;;;;;13.95;50.02;97734.69;4409475;32;20148;-78
2023/12/12 08:00:22;;;;;;;11.27;4.15;;;;;;;14.87;48.24;97737.53;4409869;32;20134;-79
2023/12/12 08:02:49;;;;;;;10.27;4.22;;;;;;;15.13;46.32;97735.84;4409633;32;20157;-80
2023/12/12 08:05:16;;;;;;;11.68;4.45;;;;;;;14.75;47.11;97723.56;4409373;32;20078;-79
2023/12/12 08:07:43;;;;;;;10.70;4.25;;;;;;;14.84;47.11;97743.75;4409934;32;20446;-80
2023/12/12 08:10:10;;;;;;;13.30;5.03;;;;;;;14.36;48.24;97740.75;4409848;32;20074;-80
2023/12/12 08:12:37;;;;;;;9.13;4.20;;;;;;;15.76;46.07;97735.06;4409328;32;20412;-80
2023/12/12 08:15:05;;;;;;;9.35;3.75;;;;;;;16.46;45.39;97730.94;4409739;32;20433;-79
2023/12/12 08:17:32;;;;;;;10.60;3.60;;;;;;;17.45;42.33;97722.84;4409827;32;20117;-80
2023/12/12 08:19:59;;;;;;;10.32;4.60;;;;;;;17.79;41.31;97718.50;4409593;32;20090;-79
2023/12/12 08:22:27;;;;;;;10.25;4.25;;;;;;;17.90;41.70;97721.13;4409429;32;20086;-79
2023/12/12 08:24:54;;;;;;;11.00;4.28;;;;;;;18.45;40.41;97718.56;4408390;32;20428;-79
2023/12/12 08:27:22;;;;;;;12.02;4.75;;;;;;;19.28;39.58;97707.44;4409400;32;20149;-75
2023/12/12 08:29:49;;;;;;;10.35;4.10;;;;;;;19.47;39.20;97717.19;4405860;32;20120;-76
2023/12/12 08:32:16;;;;;;;12.13;5.37;;;;;;;19.48;38.97;97721.47;4403683;32;20130;-76
2023/12/12 08:34:43;;;;;;;9.57;4.07;;;;;;;19.39;39.09;97720.44;4395522;32;20433;-78
2023/12/12 08:37:10;;;;;;;10.93;4.50;;;;;;;18.94;40.22;97728.53;4401900;32;20173;-79
2023/12/12 08:39:38;;;;;;;11.07;5.30;;;;;;;19.04;40.56;97720.75;4380447;32;20119;-80
2023/12/12 08:42:06;;;;;;;10.27;4.55;;;;;;;19.44;39.95;97723.50;4394761;32;20567;-81
2023/12/12 08:44:33;;;;;;;11.20;4.43;;;;;;;19.77;39.82;97724.25;4399846;32;20141;-80
2023/12/12 08:47:00;;;;;;;10.25;4.07;;;;;;;19.81;39.75;97726.50;4408736;32;20150;-83
2023/12/12 08:49:27;;;;;;;9.68;3.70;;;;;;;20.14;38.31;97719.31;4407941;32;20090;-81
2023/12/12 08:51:54;;;;;;;11.23;5.30;;;;;;;20.60;36.74;97717.91;4407373;32;20093;-81
2023/12/12 08:54:21;;;;;;;14.55;6.12;;;;;;;14.61;47.24;97703.69;4394924;32;20579;-78
2023/12/12 08:56:55;;;;;;;10.07;4.07;;;;;;;15.71;46.75;97713.72;4405539;32;20229;-78
2023/12/12 08:59:22;;;;;;;12.30;5.45;;;;;;;17.96;41.27;97711.97;4409440;32;20145;-80
2023/12/12 09:01:59;;;;;;;19.17;9.05;;;;;;;19.22;39.38;97711.38;4398858;32;20169;-80
2023/12/12 09:04:26;;;;;;;12.25;6.03;;;;;;;20.08;36.86;97720.66;4409251;32;20224;-80
2023/12/12 09:07:03;;;;;;;11.93;5.30;;;;;;;20.03;37.43;97709.75;4400627;32;20433;-80
2023/12/12 09:09:37;;;;;;;14.63;5.60;;;;;;;20.37;37.40;97719.91;4404867;32;20116;-82
2023/12/12 09:12:05;;;;;;;13.15;5.22;;;;;;;21.16;35.77;97719.84;4401554;32;20094;-81
2023/12/12 09:14:32;;;;;;;12.32;4.37;;;;;;;21.66;34.84;97725.72;4405584;32;20152;-81
2023/12/12 09:16:59;;;;;;;8.75;3.90;;;;;;;22.06;33.82;97732.50;4405804;32;20161;-81
2023/12/12 09:19:26;;;;;;;7.03;2.92;;;;;;;22.45;33.45;97725.28;4394746;32;20110;-82
2023/12/12 09:21:54;;;;;;;9.23;3.03;;;;;;;22.76;33.39;97718.72;4393568;32;20078;-80
2023/12/12 09:24:21;;;;;;;7.68;2.65;;;;;;;23.56;32.04;97714.28;4405618;32;20082;-80
2023/12/12 09:26:48;;;;;;;8.77;2.92;;;;;;;23.31;32.58;97717.72;4408893;32;20128;-81
2023/12/12 09:29:15;;;;;;;7.62;2.58;;;;;;;23.62;32.20;97718.97;4391582;32;20469;-79
2023/12/12 09:31:42;;;;;;;8.45;2.45;;;;;;;24.09;31.01;97709.81;4401842;32;20114;-80
2023/12/12 09:34:09;;;;;;;7.70;2.35;;;;;;;24.29;29.73;97705.09;4393685;32;20108;-80
2023/12/12 09:36:36;;;;;;;6.87;2.17;;;;;;;24.74;28.56;97691.53;4383219;32;20098;-80
2023/12/12 09:39:07;;;;;;;5.82;1.80;;;;;;;24.99;27.67;97679.19;4406254;32;20117;-80
2023/12/12 09:41:34;;;;;;;8.00;2.10;;;;;;;24.98;27.44;97686.28;4408811;32;20160;-80
2023/12/12 09:44:01;;;;;;;8.18;2.10;;;;;;;24.04;28.85;97683.94;4393332;32;20089;-82
2023/12/12 09:46:30;;;;;;;7.37;1.90;;;;;;;24.66;28.08;97684.44;4394815;32;20154;-80
2023/12/12 09:48:58;;;;;;;3.72;1.60;;;;;;;24.99;27.66;97693.22;4391159;32;20113;-80
2023/12/12 09:51:25;;;;;;;5.82;1.83;;;;;;;25.47;26.42;97688.09;4409037;32;20105;-80
2023/12/12 09:53:54;;;;;;;5.72;1.73;;;;;;;25.43;26.13;97689.44;4408858;32;20111;-79
2023/12/12 09:56:21;;;;;;;6.93;1.90;;;;;;;25.07;26.87;97698.53;4395694;32;20370;-80
2023/12/12 09:58:48;;;;;;;7.00;1.62;;;;;;;24.65;26.64;97695.97;4410181;32;20090;-80
2023/12/12 10:01:17;;;;;;;7.65;1.92;;;;;;;23.74;28.27;97695.81;4410678;32;20128;-81
2023/12/12 10:03:44;;;;;;;7.35;1.95;;;;;;;23.74;28.72;97685.28;4410573;32;20100;-80
2023/12/12 10:06:12;;;;;;;7.18;1.83;;;;;;;24.24;27.27;97684.47;4410643;32;20105;-78
2023/12/12 10:08:40;;;;;;;8.60;2.03;;;;;;;24.36;28.00;97685.06;4410676;32;20098;-78
2023/12/12 10:11:10;;;;;;;6.20;1.50;;;;;;;24.46;28.59;97685.75;4410095;32;20097;-78
2023/12/12 10:13:50;;;;;;;4.47;1.70;;;;;;;23.69;28.99;97690.19;4410579;32;20152;-79
2023/12/12 10:16:18;;;;;;;7.62;1.77;;;;;;;23.89;28.92;97686.31;4410349;32;20102;-79
2023/12/12 10:18:46;;;;;;;7.45;1.42;;;;;;;24.07;28.02;97686.25;4410605;32;20090;-80
2023/12/12 10:21:19;;;;;;;5.12;1.60;;;;;;;23.47;29.56;97680.12;4410521;32;20595;-80
2023/12/12 10:23:53;;;;;;;7.18;1.67;;;;;;;22.82;30.72;97675.19;4410536;32;20745;-79
2023/12/12 10:26:31;;;;;;;7.40;1.58;;;;;;;22.66;30.71;97672.44;4410194;32;20144;-84
2023/12/12 10:28:59;;;;;;;6.65;1.65;;;;;;;22.42;30.21;97667.75;4410828;32;20103;-81
2023/12/12 10:31:27;;;;;;;4.68;1.58;;;;;;;22.35;31.47;97669.34;4396919;32;20121;-81
2023/12/12 10:33:56;;;;;;;5.50;1.40;;;;;;;22.58;31.37;97667.91;4410274;32;20104;-81
2023/12/12 10:36:27;;;;;;;7.75;1.70;;;;;;;23.01;30.12;97668.97;4396983;32;20164;-83
2023/12/12 10:38:54;;;;;;;4.45;1.30;;;;;;;22.81;29.88;97669.09;4410268;32;20711;-82
2023/12/12 10:41:21;;;;;;;7.00;1.98;;;;;;;21.78;30.97;97673.88;4659720;26;20159;-84
2023/12/12 10:43:53;;;;;;;4.07;1.58;;;;;;;21.65;31.44;97671.56;4598027;27;20090;-84
2023/12/12 10:46:39;;;;;;;5.30;1.30;;;;;;;20.79;33.12;97676.81;4406181;32;20114;-84
2023/12/12 10:49:10;;;;;;;5.30;1.40;;;;;;;21.04;32.80;97643.09;4407899;32;20071;-83
2023/12/12 10:51:37;;;;;;;5.12;1.58;;;;;;;20.66;33.38;97641.38;4395899;32;20058;-84
2023/12/12 10:54:05;;;;;;;6.75;1.50;;;;;;;19.56;34.16;97636.13;4579145;27;20105;-83
2023/12/12 10:56:35;;;;;;;8.20;1.65;;;;;;;20.64;32.60;97667.72;4397392;32;20094;-83
2023/12/12 10:59:03;;;;;;;4.37;1.55;;;;;;;20.45;33.29;97683.44;4399295;32;20167;-82
2023/12/12 11:01:50;;;;;;;8.40;1.52;;;;;;;21.03;33.21;97678.19;4406931;32;20097;-83
2023/12/12 11:04:17;;;;;;;5.12;1.45;;;;;;;21.31;32.23;97673.91;4773820;26;20102;-84
2023/12/12 11:09:43;;;;;;;8.75;1.83;;;;;;;21.24;31.87;97670.97;4587776;26;20059;-84
2023/12/12 11:12:11;;;;;;;10.07;1.90;;;;;;;21.12;32.01;97639.78;4409141;32;20105;-84
2023/12/12 11:14:39;;;;;;;5.80;1.60;;;;;;;21.63;30.46;97655.97;4428089;27;20168;-84
2023/12/12 11:19:46;;;;;;;7.35;2.10;;;;;;;21.80;32.38;97661.41;4430188;27;20087;-83
2023/12/12 11:25:28;;;;;;;6.80;2.87;;;;;;;22.15;32.00;97664.19;4534764;27;20090;-81
2023/12/12 11:27:58;;;;;;;8.73;3.35;;;;;;;21.49;33.14;97648.56;4384588;32;20102;-81
2023/12/12 11:30:38;;;;;;;8.88;3.12;;;;;;;21.11;34.11;97667.81;4402251;32;20094;-81
2023/12/12 11:35:47;;;;;;;9.73;3.25;;;;;;;18.44;38.59;97651.59;4573466;27;20146;-80
2023/12/12 11:38:30;;;;;;;8.63;3.37;;;;;;;19.07;38.11;97655.97;4400132;32;20113;-80
2023/12/12 11:41:13;;;;;;;10.10;3.50;;;;;;;18.79;38.96;97654.78;4399754;32;20129;-80
2023/12/12 11:43:41;;;;;;;9.18;3.08;;;;;;;18.60;39.11;97654.59;4405374;32;20098;-81
2023/12/12 11:46:20;;;;;;;7.45;2.72;;;;;;;19.11;38.41;97650.47;4418321;32;20100;-79